Fanoula — A8NE6 — position and weather

sailwx.info

Track history (hours):
 
Tides and Currents Weather Stations Pressure Air Temp Water Temp Dewpoint Dewpoint Depression Visibility Wind Speed Wind Dir Waves Ship Positions

Fanoula

Last reported at 2018-Apr-18 13:39 UTC. Time now 2018-Apr-22 14:14 UTC.
Position N 33°14' E 135°20'.

Length 190 m; draft 12.3 m.

Type: Cargo ship. MMSI: 636013467.

Date/timePositionNaut miles runAvg speedWind from/ knotsBaromVisibWave heightAir tempDewpointWater temp
2018-Apr-18 13:39N 33°14' E 135°20'20612.2
2018-Apr-17 20:49N 34°08' E 139°18'13 9.8
2018-Apr-17 19:31N 34°16' E 139°30'1 9.1
2018-Apr-17 19:21N 34°17' E 139°31'3 9.2
2018-Apr-17 18:59N 34°20' E 139°34'510.0
2018-Apr-17 18:29N 34°23' E 139°39'711.1
2018-Apr-17 17:51N 34°28' E 139°45'411.1
2018-Apr-17 17:30N 34°31' E 139°48'1811.4
2018-Apr-17 15:57N 34°43' E 140°03'511.8
2018-Apr-17 15:30N 34°47' E 140°08'712.2
2018-Apr-17 14:58N 34°50' E 140°15'612.4
2018-Apr-17 14:30N 34°53' E 140°21'  
Track history (hours):
 
Tides and Currents Weather Stations Pressure Air Temp Water Temp Dewpoint Dewpoint Depression Visibility Wind Speed Wind Dir Waves Ship Positions

Fanoula

Last reported at 2018-Apr-18 13:39 UTC. Time now 2018-Apr-22 14:14 UTC.
Position N 33°14' E 135°20'.

Length 190 m; draft 12.3 m.

Type: Cargo ship. MMSI: 636013467.

Date/timePositionNaut miles runAvg speedWind from/ knotsBaromVisibWave heightAir tempDewpointWater temp
2018-Apr-18 13:39N 33°14' E 135°20'20612.2
2018-Apr-17 20:49N 34°08' E 139°18'13 9.8
2018-Apr-17 19:31N 34°16' E 139°30'1 9.1
2018-Apr-17 19:21N 34°17' E 139°31'3 9.2
2018-Apr-17 18:59N 34°20' E 139°34'510.0
2018-Apr-17 18:29N 34°23' E 139°39'711.1
2018-Apr-17 17:51N 34°28' E 139°45'411.1
2018-Apr-17 17:30N 34°31' E 139°48'1811.4
2018-Apr-17 15:57N 34°43' E 140°03'511.8
2018-Apr-17 15:30N 34°47' E 140°08'712.2
2018-Apr-17 14:58N 34°50' E 140°15'612.4
2018-Apr-17 14:30N 34°53' E 140°21'  

Dump ship's entire track history